Hovedside
METAR-TAF:

METAR-TAF

Lufthavner :

Trollhättan-Vänersborg, Sverige

breddegrad: 58-19N, lengdegrad: 012-21E, høyde over havet: 41 m

Gjeldene værobservasjon

Denne rapporten ble laget for 23 timer og 46 minutter siden, klokken 17:50 UTC
Vind 7 kt fra Øst
Temperatur 24°C
Luftfuktighet 36%
Trykk 1025 hPa
Sikt 10 km eller mer
ingen skyer under 1500 m og ingen bygeskyer

METAR: ESGT 251750Z 08007KT CAVOK 24/08 Q1025

Tid: 19:36 (17:36 UTC)


TAF: fraværende

Værobservasjoner og værvarsel for over 4000 flyplasser (METAR- og TAF-rapporter).

Tilgjengelige stasjoner er representert av de røde og gule prikkene på kartet.

Hold musepekeren over prikken for å se navnet på stasjonen.

Klikk så for å se værobservasjoner og -varsler.

For å forandre kartet kan du klikke på den grønne knappen med svart kryss for å zoome inn, på den grønne knappen med strek for å zoome ut, eller på de grønne pilene for å se tilstøtende kart.


METAR-TAF: